createdAt,value
2023-04-13T00:00:35.168Z,7.30
2023-04-13T00:03:04.361Z,7.30
2023-04-13T00:05:34.379Z,7.30
2023-04-13T00:08:03.475Z,7.20
2023-04-13T00:10:36.162Z,7.20
2023-04-13T00:13:06.614Z,7.10
2023-04-13T00:15:38.133Z,7.10
2023-04-13T00:18:06.792Z,7.00
2023-04-13T00:20:35.242Z,7.00
2023-04-13T00:23:04.053Z,7.00
2023-04-13T00:25:32.584Z,7.00
2023-04-13T00:28:03.407Z,7.00
2023-04-13T00:30:33.432Z,7.00
2023-04-13T00:33:03.817Z,7.00
2023-04-13T00:35:32.336Z,7.00
2023-04-13T00:38:00.626Z,7.00
2023-04-13T00:40:30.191Z,7.00
2023-04-13T00:43:00.596Z,7.00
2023-04-13T00:45:29.370Z,7.00
2023-04-13T00:48:00.091Z,7.10
2023-04-13T00:50:28.613Z,7.10
2023-04-13T00:52:57.933Z,7.10
2023-04-13T00:55:27.763Z,7.10
2023-04-13T00:57:56.172Z,7.20
2023-04-13T01:00:25.767Z,7.10
2023-04-13T01:02:54.984Z,7.20
2023-04-13T01:05:25.736Z,7.20
2023-04-13T01:08:09.709Z,7.30
2023-04-13T01:10:45.904Z,7.30
2023-04-13T01:13:21.338Z,7.40
2023-04-13T01:16:02.504Z,7.40
2023-04-13T01:18:31.974Z,7.40
2023-04-13T01:21:04.590Z,7.50
2023-04-13T01:23:52.331Z,7.50
2023-04-13T01:26:22.589Z,7.40
2023-04-13T01:28:53.064Z,7.40
2023-04-13T01:31:22.503Z,7.40
2023-04-13T01:33:51.414Z,7.40
2023-04-13T01:36:20.123Z,7.40
2023-04-13T01:38:49.000Z,7.40
2023-04-13T01:41:17.240Z,7.40
2023-04-13T01:43:46.809Z,7.40
2023-04-13T01:46:16.446Z,7.30
2023-04-13T01:48:50.593Z,7.40
2023-04-13T01:51:21.708Z,7.40
2023-04-13T01:53:54.500Z,7.40
2023-04-13T01:56:23.942Z,7.40
2023-04-13T01:58:58.196Z,7.40
2023-04-13T02:01:28.363Z,7.40
2023-04-13T02:03:57.119Z,7.40
2023-04-13T02:06:25.978Z,7.40
2023-04-13T02:08:54.850Z,7.40
2023-04-13T02:11:23.177Z,7.50
2023-04-13T02:13:51.462Z,7.50
2023-04-13T02:16:19.777Z,7.50
2023-04-13T02:18:49.477Z,7.50
2023-04-13T02:21:18.019Z,7.50
2023-04-13T02:23:46.739Z,7.50
2023-04-13T02:26:16.385Z,7.50
2023-04-13T02:28:45.580Z,7.50
2023-04-13T02:31:16.952Z,7.50
2023-04-13T02:33:46.446Z,7.50
2023-04-13T02:36:17.454Z,7.50
2023-04-13T02:38:45.776Z,7.50
2023-04-13T02:41:14.005Z,7.50
2023-04-13T02:43:42.272Z,7.50
2023-04-13T02:46:10.509Z,7.40
2023-04-13T02:48:38.753Z,7.40
2023-04-13T02:51:07.791Z,7.30
2023-04-13T02:53:37.505Z,7.30
2023-04-13T02:56:06.822Z,7.30
2023-04-13T02:58:35.027Z,7.30
2023-04-13T03:01:03.462Z,7.30
2023-04-13T03:03:31.658Z,7.30
2023-04-13T03:06:01.517Z,7.30
2023-04-13T03:08:29.812Z,7.30
2023-04-13T03:10:59.557Z,7.30
2023-04-13T03:13:27.770Z,7.30
2023-04-13T03:15:56.044Z,7.30
2023-04-13T03:18:24.634Z,7.30
2023-04-13T03:20:53.378Z,7.30
2023-04-13T03:23:21.608Z,7.30
2023-04-13T03:25:49.797Z,7.20
2023-04-13T03:28:20.056Z,7.20
2023-04-13T03:30:48.255Z,7.20
2023-04-13T03:33:16.678Z,7.20
2023-04-13T03:35:44.879Z,7.20
2023-04-13T03:38:13.153Z,7.20
2023-04-13T03:40:41.314Z,7.20
2023-04-13T03:43:10.172Z,7.20
2023-04-13T03:45:39.807Z,7.20
2023-04-13T03:48:08.575Z,7.10
2023-04-13T03:50:37.035Z,7.20
2023-04-13T03:53:05.616Z,7.20
2023-04-13T03:55:33.888Z,7.20
2023-04-13T03:58:02.844Z,7.20
2023-04-13T04:00:31.216Z,7.20
2023-04-13T04:03:00.904Z,7.20
2023-04-13T04:05:29.230Z,7.20
2023-04-13T04:07:57.502Z,7.20
2023-04-13T04:10:25.909Z,7.20
2023-04-13T04:12:54.388Z,7.20
2023-04-13T04:15:22.555Z,7.20
2023-04-13T04:17:51.327Z,7.20
2023-04-13T04:20:21.156Z,7.20
2023-04-13T04:22:53.469Z,7.20
2023-04-13T04:25:22.990Z,7.20
2023-04-13T04:27:52.715Z,7.20
2023-04-13T04:30:22.286Z,7.20
2023-04-13T04:32:52.931Z,7.20
2023-04-13T04:35:26.109Z,7.20
2023-04-13T04:37:55.292Z,7.10
2023-04-13T04:40:23.621Z,7.20
2023-04-13T04:42:52.025Z,7.10
2023-04-13T04:45:20.735Z,7.10
2023-04-13T04:47:50.333Z,7.10
2023-04-13T04:50:18.881Z,7.10
2023-04-13T04:52:48.442Z,7.10
2023-04-13T04:55:16.718Z,7.00
2023-04-13T04:57:45.962Z,7.00
2023-04-13T05:00:16.893Z,7.00
2023-04-13T05:02:46.598Z,7.00
2023-04-13T05:05:15.194Z,7.00
2023-04-13T05:07:45.068Z,7.00
2023-04-13T05:10:14.950Z,7.00
2023-04-13T05:12:43.304Z,7.00
2023-04-13T05:15:12.535Z,7.00
2023-04-13T05:17:41.800Z,7.10
2023-04-13T05:20:11.216Z,7.10
2023-04-13T05:22:40.728Z,7.20
2023-04-13T05:25:10.289Z,7.20
2023-04-13T05:27:39.862Z,7.20
2023-04-13T05:30:10.631Z,7.20
2023-04-13T05:32:39.269Z,7.20
2023-04-13T05:35:10.248Z,7.30
2023-04-13T05:37:39.938Z,7.20
2023-04-13T05:40:13.596Z,7.30
2023-04-13T05:42:44.140Z,7.30
2023-04-13T05:45:13.190Z,7.30
2023-04-13T05:47:41.465Z,7.20
2023-04-13T05:50:11.196Z,7.20
2023-04-13T05:52:39.424Z,7.30
2023-04-13T05:55:08.476Z,7.30
2023-04-13T05:57:36.804Z,7.30
2023-04-13T06:00:10.380Z,7.30
2023-04-13T06:02:40.526Z,7.30
2023-04-13T06:05:10.362Z,7.30
2023-04-13T06:07:38.657Z,7.30
2023-04-13T06:10:08.658Z,7.30
2023-04-13T06:12:36.925Z,7.40
2023-04-13T06:15:08.465Z,7.40
2023-04-13T06:17:37.046Z,7.40
2023-04-13T06:20:07.794Z,7.50
2023-04-13T06:22:36.415Z,7.50
2023-04-13T06:25:05.224Z,7.60
2023-04-13T06:27:33.890Z,7.60
2023-04-13T06:30:02.587Z,7.60
2023-04-13T06:32:32.385Z,7.70
2023-04-13T06:35:00.764Z,7.80
2023-04-13T06:37:29.058Z,7.80
2023-04-13T06:39:57.685Z,7.80
2023-04-13T06:42:26.115Z,7.80
2023-04-13T06:44:54.353Z,7.90
2023-04-13T06:47:22.620Z,7.90
2023-04-13T06:49:52.305Z,7.90
2023-04-13T06:52:20.924Z,7.80
2023-04-13T06:54:49.243Z,7.80
2023-04-13T06:57:18.841Z,7.90
2023-04-13T06:59:47.521Z,7.90
2023-04-13T07:02:15.868Z,7.90
2023-04-13T07:04:44.349Z,7.90
2023-04-13T07:07:14.237Z,8.00
2023-04-13T07:09:42.744Z,8.00
2023-04-13T07:12:11.223Z,8.00
2023-04-13T07:14:41.735Z,8.00
2023-04-13T07:17:12.786Z,8.10
2023-04-13T07:19:47.878Z,8.10
2023-04-13T07:22:17.816Z,8.20
2023-04-13T07:24:46.419Z,8.20
2023-04-13T07:27:14.734Z,8.20
2023-04-13T07:29:43.035Z,8.30
2023-04-13T07:32:11.590Z,8.30
2023-04-13T07:34:39.938Z,8.30
2023-04-13T07:37:08.224Z,8.40
2023-04-13T07:39:37.888Z,8.50
2023-04-13T07:42:06.372Z,8.50
2023-04-13T07:44:34.996Z,8.50
2023-04-13T07:47:03.569Z,8.50
2023-04-13T07:49:31.913Z,8.50
2023-04-13T07:52:00.719Z,8.50
2023-04-13T07:54:28.971Z,8.50
2023-04-13T07:56:58.746Z,8.50
2023-04-13T07:59:27.041Z,8.50
2023-04-13T08:01:55.610Z,8.50
2023-04-13T08:04:24.076Z,8.50
2023-04-13T08:06:52.512Z,8.60
2023-04-13T08:09:20.803Z,8.60
2023-04-13T08:11:49.615Z,8.60
2023-04-13T08:14:19.242Z,8.70
2023-04-13T08:16:47.648Z,8.70
2023-04-13T08:19:16.266Z,8.70
2023-04-13T08:21:44.587Z,8.80
2023-04-13T08:24:12.945Z,8.80
2023-04-13T08:26:41.378Z,8.80
2023-04-13T08:29:10.404Z,8.90
2023-04-13T08:31:40.735Z,9.10
2023-04-13T08:34:10.423Z,9.10
2023-04-13T08:36:38.966Z,9.40
2023-04-13T08:39:09.865Z,9.50
2023-04-13T08:41:41.169Z,9.70
2023-04-13T08:44:10.166Z,9.90
2023-04-13T08:46:41.233Z,10.10
2023-04-13T08:49:10.576Z,10.20
2023-04-13T08:51:42.015Z,10.20
2023-04-13T08:54:11.981Z,10.30
2023-04-13T08:56:46.297Z,10.30
2023-04-13T08:59:16.441Z,10.30
2023-04-13T09:01:48.948Z,10.30
2023-04-13T09:04:19.068Z,10.20
2023-04-13T09:06:51.129Z,10.00
2023-04-13T09:09:20.480Z,10.00
2023-04-13T09:11:51.011Z,10.00
2023-04-13T09:14:20.678Z,9.90
2023-04-13T09:16:50.869Z,9.90
2023-04-13T09:19:30.088Z,9.90
2023-04-13T09:21:58.702Z,9.80
2023-04-13T09:24:27.327Z,9.80
2023-04-13T09:26:55.647Z,9.80
2023-04-13T09:29:23.980Z,9.80
2023-04-13T09:31:53.579Z,9.70
2023-04-13T09:34:29.700Z,9.80
2023-04-13T09:37:01.118Z,9.90
2023-04-13T09:39:30.233Z,9.90
2023-04-13T09:41:59.427Z,9.90
2023-04-13T09:44:31.075Z,10.00
2023-04-13T09:47:02.091Z,10.20
2023-04-13T09:49:38.764Z,10.40
2023-04-13T09:52:08.266Z,10.40
2023-04-13T09:54:37.166Z,10.40
2023-04-13T09:57:05.904Z,10.30
2023-04-13T09:59:34.468Z,10.30
2023-04-13T10:02:05.831Z,10.30
2023-04-13T10:04:36.921Z,10.30
2023-04-13T10:07:06.914Z,10.30
2023-04-13T10:09:35.162Z,10.30
2023-04-13T10:12:05.112Z,10.40
2023-04-13T10:14:37.331Z,10.50
2023-04-13T10:17:25.370Z,10.50
2023-04-13T10:19:55.971Z,10.50
2023-04-13T10:22:24.568Z,10.50
2023-04-13T10:24:53.879Z,10.50
2023-04-13T10:27:23.643Z,10.50
2023-04-13T10:29:51.898Z,10.60
2023-04-13T10:32:26.857Z,10.70
2023-04-13T10:34:56.258Z,10.80
2023-04-13T10:37:29.839Z,10.80
2023-04-13T10:40:07.783Z,10.90
2023-04-13T10:45:21.387Z,10.90
2023-04-13T10:47:51.529Z,10.90
2023-04-13T10:50:20.929Z,10.90
2023-04-13T10:53:10.556Z,11.00
2023-04-13T10:55:38.910Z,11.10
2023-04-13T10:58:17.475Z,11.20
2023-04-13T11:00:47.379Z,11.20
2023-04-13T11:03:19.099Z,11.20
2023-04-13T11:05:48.591Z,11.10
2023-04-13T11:08:21.222Z,11.20
2023-04-13T11:10:54.395Z,11.30
2023-04-13T11:13:25.116Z,11.40
2023-04-13T11:16:01.322Z,11.40
2023-04-13T11:18:30.988Z,11.60
2023-04-13T11:20:59.269Z,11.70
2023-04-13T11:23:27.504Z,11.80
2023-04-13T11:25:58.517Z,12.00
2023-04-13T11:28:37.851Z,11.90
2023-04-13T11:31:07.503Z,11.80
2023-04-13T11:33:39.920Z,11.90
2023-04-13T11:36:11.763Z,11.90
2023-04-13T11:38:42.088Z,11.80
2023-04-13T11:43:42.648Z,11.90
2023-04-13T11:46:13.671Z,12.20
2023-04-13T11:48:43.633Z,12.60
2023-04-13T11:51:12.608Z,12.90
2023-04-13T11:53:41.515Z,13.30
2023-04-13T11:56:10.668Z,13.70
2023-04-13T11:58:40.540Z,13.50
2023-04-13T12:01:14.344Z,13.20
2023-04-13T12:06:22.191Z,13.00
2023-04-13T12:08:55.683Z,13.00
2023-04-13T12:11:41.560Z,12.90
2023-04-13T12:17:06.281Z,13.30
2023-04-13T12:19:43.764Z,13.50
2023-04-13T12:22:13.743Z,13.70
2023-04-13T12:24:43.227Z,14.00
2023-04-13T12:29:42.771Z,13.70
2023-04-13T12:32:14.260Z,13.30
2023-04-13T12:34:44.959Z,13.30
2023-04-13T12:37:13.638Z,13.30
2023-04-13T12:39:43.504Z,13.30
2023-04-13T12:42:12.218Z,13.30
2023-04-13T12:44:40.537Z,13.30
2023-04-13T12:47:08.813Z,13.30
2023-04-13T12:49:37.162Z,13.30
2023-04-13T12:52:07.053Z,13.20
2023-04-13T12:54:35.423Z,13.30
2023-04-13T12:57:03.851Z,13.20
2023-04-13T12:59:32.062Z,13.00
2023-04-13T13:02:00.377Z,13.00
2023-04-13T13:04:30.718Z,13.00
2023-04-13T13:06:59.794Z,13.00
2023-04-13T13:09:29.530Z,13.10
2023-04-13T13:11:58.248Z,13.30
2023-04-13T13:14:26.619Z,13.60
2023-04-13T13:16:55.128Z,13.90
2023-04-13T13:19:23.514Z,14.00
2023-04-13T13:21:51.854Z,14.20
2023-04-13T13:24:20.121Z,14.20
2023-04-13T13:27:12.141Z,14.10
2023-04-13T13:29:38.098Z,14.20
2023-04-13T13:32:07.222Z,14.30
2023-04-13T13:34:35.644Z,14.60
2023-04-13T13:37:04.596Z,14.50
2023-04-13T13:39:32.920Z,14.30
2023-04-13T13:42:03.466Z,14.30
2023-04-13T13:44:32.620Z,14.50
2023-04-13T13:47:02.187Z,14.60
2023-04-13T13:49:30.501Z,14.60
2023-04-13T13:51:59.400Z,14.50
2023-04-13T13:54:27.778Z,14.40
2023-04-13T13:56:56.185Z,14.40
2023-04-13T13:59:25.860Z,14.50
2023-04-13T14:01:54.210Z,14.50
2023-04-13T14:04:22.540Z,14.60
2023-04-13T14:06:50.803Z,14.60
2023-04-13T14:09:19.954Z,14.70
2023-04-13T14:11:48.441Z,14.50
2023-04-13T14:14:21.753Z,14.50
2023-04-13T14:16:52.103Z,14.30
2023-04-13T14:19:22.044Z,14.30
2023-04-13T14:21:50.484Z,14.50
2023-04-13T14:24:18.790Z,14.40
2023-04-13T14:26:47.114Z,14.20
2023-04-13T14:29:15.407Z,14.20
2023-04-13T14:31:43.934Z,14.20
2023-04-13T14:34:13.708Z,14.20
2023-04-13T14:36:42.333Z,14.20
2023-04-13T14:39:10.664Z,14.20
2023-04-13T14:41:38.940Z,14.20
2023-04-13T14:44:07.735Z,14.20
2023-04-13T14:46:35.976Z,14.10
2023-04-13T14:49:04.225Z,14.00
2023-04-13T14:51:34.436Z,13.90
2023-04-13T14:54:02.733Z,13.90
2023-04-13T14:56:31.063Z,13.90
2023-04-13T14:58:59.736Z,13.90
2023-04-13T15:01:28.333Z,14.10
2023-04-13T15:03:56.702Z,14.00
2023-04-13T15:06:27.575Z,14.00
2023-04-13T15:08:57.236Z,13.90
2023-04-13T15:11:25.725Z,13.90
2023-04-13T15:13:54.194Z,13.90
2023-04-13T15:16:22.411Z,14.00
2023-04-13T15:18:50.697Z,13.90
2023-04-13T15:21:19.004Z,13.90
2023-04-13T15:23:47.296Z,14.00
2023-04-13T15:26:19.467Z,14.10
2023-04-13T15:28:48.054Z,14.10
2023-04-13T15:31:16.304Z,14.20
2023-04-13T15:33:44.587Z,14.20
2023-04-13T15:36:15.802Z,14.20
2023-04-13T15:38:44.090Z,14.10
2023-04-13T15:41:12.582Z,14.20
2023-04-13T15:43:44.032Z,14.10
2023-04-13T15:46:12.482Z,14.10
2023-04-13T15:48:40.809Z,14.10
2023-04-13T15:51:09.341Z,14.00
2023-04-13T15:53:37.644Z,14.00
2023-04-13T15:56:10.052Z,14.20
2023-04-13T15:58:38.561Z,14.20
2023-04-13T16:01:11.075Z,14.10
2023-04-13T16:03:41.055Z,13.90
2023-04-13T16:06:10.702Z,13.80
2023-04-13T16:08:40.138Z,13.70
2023-04-13T16:11:08.413Z,13.60
2023-04-13T16:16:14.948Z,13.50
2023-04-13T16:18:43.324Z,13.50
2023-04-13T16:21:12.496Z,13.50
2023-04-13T16:23:40.969Z,13.40
2023-04-13T16:26:09.257Z,13.40
2023-04-13T16:28:38.053Z,13.50
2023-04-13T16:31:11.817Z,13.40
2023-04-13T16:33:40.095Z,13.40
2023-04-13T16:36:09.684Z,13.30
2023-04-13T16:38:39.799Z,13.30
2023-04-13T16:41:08.006Z,13.20
2023-04-13T16:43:36.283Z,13.20
2023-04-13T16:46:05.570Z,13.20
2023-04-13T16:48:35.298Z,13.20
2023-04-13T16:51:04.918Z,13.20
2023-04-13T16:53:33.270Z,13.20
2023-04-13T16:56:01.522Z,13.20
2023-04-13T16:58:29.801Z,13.00
2023-04-13T17:00:58.176Z,13.00
2023-04-13T17:03:26.571Z,13.00
2023-04-13T17:05:56.590Z,13.00
2023-04-13T17:08:25.624Z,12.90
2023-04-13T17:10:54.399Z,12.90
2023-04-13T17:13:22.673Z,12.80
2023-04-13T17:15:51.354Z,12.80
2023-04-13T17:18:19.617Z,12.90
2023-04-13T17:20:56.365Z,12.80
2023-04-13T17:23:24.781Z,12.70
2023-04-13T17:25:54.316Z,12.70
2023-04-13T17:28:24.885Z,12.70
2023-04-13T17:30:53.284Z,12.60
2023-04-13T17:33:22.049Z,12.60
2023-04-13T17:35:55.740Z,12.50
2023-04-13T17:38:24.131Z,12.50
2023-04-13T17:40:52.610Z,12.50
2023-04-13T17:43:20.861Z,12.40
2023-04-13T17:45:49.213Z,12.30
2023-04-13T17:48:17.493Z,12.20
2023-04-13T17:50:45.963Z,12.20
2023-04-13T17:53:15.591Z,12.20
2023-04-13T17:55:43.933Z,12.20
2023-04-13T17:58:12.742Z,12.10
2023-04-13T18:00:41.020Z,12.10
2023-04-13T18:03:11.016Z,12.00
2023-04-13T18:05:44.727Z,12.00
2023-04-13T18:08:13.049Z,11.90
2023-04-13T18:10:43.891Z,11.90
2023-04-13T18:13:12.641Z,11.80
2023-04-13T18:15:40.964Z,11.80
2023-04-13T18:18:09.344Z,11.70
2023-04-13T18:20:37.606Z,11.70
2023-04-13T18:23:06.111Z,11.70
2023-04-13T18:25:34.457Z,11.70
2023-04-13T18:28:04.211Z,11.60
2023-04-13T18:30:32.528Z,11.50
2023-04-13T18:33:00.890Z,11.50
2023-04-13T18:35:29.707Z,11.40
2023-04-13T18:37:58.018Z,11.20
2023-04-13T18:40:26.453Z,11.20
2023-04-13T18:42:54.698Z,11.10
2023-04-13T18:45:24.328Z,11.10
2023-04-13T18:47:52.711Z,11.00
2023-04-13T18:50:21.431Z,11.00
2023-04-13T18:52:49.737Z,10.90
2023-04-13T18:55:18.308Z,10.80
2023-04-13T18:57:46.546Z,10.70
2023-04-13T19:00:16.471Z,10.60
2023-04-13T19:02:48.787Z,10.60
2023-04-13T19:05:18.074Z,10.50
2023-04-13T19:07:58.530Z,10.30
2023-04-13T19:10:28.023Z,10.20
2023-04-13T19:12:56.948Z,10.10
2023-04-13T19:15:25.617Z,10.10
2023-04-13T19:17:55.448Z,10.00
2023-04-13T19:20:25.442Z,10.00
2023-04-13T19:22:53.701Z,9.90
2023-04-13T19:25:22.468Z,9.80
2023-04-13T19:27:51.053Z,9.70
2023-04-13T19:30:19.992Z,9.70
2023-04-13T19:32:50.233Z,9.70
2023-04-13T19:35:22.125Z,9.60
2023-04-13T19:37:50.395Z,9.60
2023-04-13T19:40:18.866Z,9.50
2023-04-13T19:42:48.375Z,9.40
2023-04-13T19:45:17.016Z,9.40
2023-04-13T19:47:45.481Z,9.30
2023-04-13T19:50:15.765Z,9.30
2023-04-13T19:52:47.415Z,9.20
2023-04-13T19:55:16.072Z,9.10
2023-04-13T19:57:53.532Z,9.00
2023-04-13T20:00:22.478Z,8.90
2023-04-13T20:02:53.055Z,8.80
2023-04-13T20:05:22.408Z,8.80
2023-04-13T20:07:52.036Z,8.70
2023-04-13T20:10:20.343Z,8.70
2023-04-13T20:12:48.699Z,8.70
2023-04-13T20:15:17.115Z,8.60
2023-04-13T20:17:47.835Z,8.60
2023-04-13T20:20:17.952Z,8.50
2023-04-13T20:22:46.266Z,8.50
2023-04-13T20:25:16.004Z,8.50
2023-04-13T20:27:45.726Z,8.40
2023-04-13T20:30:14.639Z,8.40
2023-04-13T20:32:43.007Z,8.40
2023-04-13T20:35:11.615Z,8.30
2023-04-13T20:37:39.897Z,8.30
2023-04-13T20:40:11.268Z,8.30
2023-04-13T20:42:42.101Z,8.20
2023-04-13T20:45:14.763Z,8.20
2023-04-13T20:47:43.312Z,8.20
2023-04-13T20:50:12.878Z,8.20
2023-04-13T20:52:41.987Z,8.10
2023-04-13T20:55:11.721Z,8.10
2023-04-13T20:57:42.244Z,8.10
2023-04-13T21:00:15.736Z,8.00
2023-04-13T21:02:45.194Z,7.90
2023-04-13T21:05:13.993Z,7.90
2023-04-13T21:07:42.596Z,7.90
2023-04-13T21:10:12.163Z,7.80
2023-04-13T21:12:41.804Z,7.80
2023-04-13T21:15:11.380Z,7.70
2023-04-13T21:17:40.562Z,7.70
2023-04-13T21:20:10.709Z,7.70
2023-04-13T21:22:38.912Z,7.70
2023-04-13T21:25:08.171Z,7.60
2023-04-13T21:27:36.423Z,7.60
2023-04-13T21:30:07.829Z,7.60
2023-04-13T21:32:36.222Z,7.60
2023-04-13T21:35:04.880Z,7.60
2023-04-13T21:37:33.261Z,7.50
2023-04-13T21:40:01.644Z,7.50
2023-04-13T21:42:29.935Z,7.50
2023-04-13T21:44:58.258Z,7.50
2023-04-13T21:47:27.982Z,7.50
2023-04-13T21:49:56.337Z,7.50
2023-04-13T21:52:24.592Z,7.40
2023-04-13T21:54:52.922Z,7.40
2023-04-13T21:57:21.206Z,7.40
2023-04-13T21:59:49.493Z,7.30
2023-04-13T22:02:17.812Z,7.40
2023-04-13T22:04:47.512Z,7.30
2023-04-13T22:07:16.201Z,7.30
2023-04-13T22:09:44.529Z,7.30
2023-04-13T22:12:14.249Z,7.30
2023-04-13T22:14:42.617Z,7.20
2023-04-13T22:17:10.859Z,7.20
2023-04-13T22:19:39.113Z,7.20
2023-04-13T22:22:08.818Z,7.20
2023-04-13T22:24:37.070Z,7.10
2023-04-13T22:27:05.775Z,7.10
2023-04-13T22:29:34.071Z,7.00
2023-04-13T22:32:02.308Z,7.00
2023-04-13T22:34:30.558Z,7.00
2023-04-13T22:36:59.093Z,6.90
2023-04-13T22:39:30.758Z,6.90
2023-04-13T22:42:00.404Z,6.80
2023-04-13T22:44:34.228Z,6.80
2023-04-13T22:47:02.913Z,6.70
2023-04-13T22:49:31.518Z,6.70
2023-04-13T22:52:00.256Z,6.60
2023-04-13T22:54:30.029Z,6.60
2023-04-13T22:56:58.198Z,6.50
2023-04-13T22:59:26.440Z,6.40
2023-04-13T23:01:54.767Z,6.40
2023-04-13T23:04:23.090Z,6.40
2023-04-13T23:06:51.335Z,6.40
2023-04-13T23:09:19.548Z,6.40
2023-04-13T23:11:49.177Z,6.30
2023-04-13T23:14:19.237Z,6.30
2023-04-13T23:16:47.619Z,6.30
2023-04-13T23:19:17.846Z,6.30
2023-04-13T23:21:46.693Z,6.20
2023-04-13T23:24:14.859Z,6.20
2023-04-13T23:26:43.062Z,6.20
2023-04-13T23:29:12.751Z,6.20
2023-04-13T23:31:41.077Z,6.20
2023-04-13T23:34:09.362Z,6.10
2023-04-13T23:36:37.645Z,6.10
2023-04-13T23:39:06.006Z,6.10
2023-04-13T23:41:34.312Z,6.00
2023-04-13T23:44:02.760Z,6.00
2023-04-13T23:46:33.877Z,6.00
2023-04-13T23:49:02.373Z,5.90
2023-04-13T23:51:31.254Z,5.70
2023-04-13T23:53:59.600Z,5.60
2023-04-13T23:56:28.300Z,5.50
2023-04-13T23:58:56.545Z,5.50
